createdAt,value
2023-01-10T00:01:00.995Z,0
2023-01-10T00:02:03.791Z,0
2023-01-10T00:03:07.180Z,0
2023-01-10T00:05:13.426Z,0
2023-01-10T00:06:17.564Z,0
2023-01-10T00:07:20.961Z,0
2023-01-10T00:08:24.258Z,0
2023-01-10T00:10:30.375Z,0
2023-01-10T00:11:33.546Z,0
2023-01-10T00:12:36.578Z,0
2023-01-10T00:13:39.393Z,0
2023-01-10T00:14:56.842Z,0
2023-01-10T00:16:00.056Z,0
2023-01-10T00:18:06.309Z,0
2023-01-10T00:19:09.380Z,0
2023-01-10T00:21:15.674Z,0
2023-01-10T00:23:21.951Z,0
2023-01-10T00:25:28.779Z,0
2023-01-10T00:26:31.918Z,0
2023-01-10T00:27:34.343Z,0
2023-01-10T00:28:37.734Z,0
2023-01-10T00:30:42.887Z,0
2023-01-10T00:31:45.901Z,0
2023-01-10T00:33:52.020Z,0
2023-01-10T00:35:58.808Z,0
2023-01-10T00:38:06.022Z,0
2023-01-10T00:39:08.988Z,0
2023-01-10T00:40:13.070Z,0
2023-01-10T00:41:15.781Z,0
2023-01-10T00:43:23.251Z,0
2023-01-10T00:44:26.597Z,0
2023-01-10T00:45:29.463Z,0
2023-01-10T00:46:33.746Z,0
2023-01-10T00:48:40.516Z,0
2023-01-10T00:49:43.315Z,0
2023-01-10T00:50:46.791Z,0
2023-01-10T00:51:49.384Z,0
2023-01-10T00:53:56.614Z,0
2023-01-10T00:56:02.493Z,0
2023-01-10T00:57:05.189Z,0
2023-01-10T00:59:12.121Z,0
2023-01-10T01:01:19.436Z,0
2023-01-10T01:03:25.978Z,0
2023-01-10T01:04:29.337Z,0
2023-01-10T01:06:35.755Z,0
2023-01-10T01:08:42.655Z,0
2023-01-10T01:10:49.290Z,0
2023-01-10T01:11:52.025Z,0
2023-01-10T01:13:58.859Z,0
2023-01-10T01:16:05.022Z,0
2023-01-10T01:18:10.645Z,0
2023-01-10T01:19:14.034Z,0
2023-01-10T01:21:19.659Z,0
2023-01-10T01:23:26.148Z,0
2023-01-10T01:25:33.641Z,0
2023-01-10T01:26:36.505Z,0
2023-01-10T01:28:41.807Z,0
2023-01-10T01:30:49.263Z,0
2023-01-10T01:32:57.760Z,0
2023-01-10T01:34:00.792Z,0
2023-01-10T01:35:04.149Z,0
2023-01-10T01:36:06.384Z,0
2023-01-10T01:38:12.819Z,0
2023-01-10T01:39:15.651Z,0
2023-01-10T01:40:18.982Z,0
2023-01-10T01:41:23.022Z,0
2023-01-10T01:43:29.262Z,0
2023-01-10T01:44:32.671Z,0
2023-01-10T01:45:35.941Z,0
2023-01-10T01:46:39.670Z,0
2023-01-10T01:48:45.514Z,0
2023-01-10T01:49:48.619Z,0
2023-01-10T01:50:51.764Z,0
2023-01-10T01:51:54.282Z,0
2023-01-10T01:53:59.878Z,0
2023-01-10T01:55:03.185Z,0
2023-01-10T01:56:06.469Z,0
2023-01-10T01:57:09.688Z,0
2023-01-10T01:59:15.472Z,0
2023-01-10T02:00:18.826Z,0
2023-01-10T02:01:23.126Z,0
2023-01-10T02:02:26.376Z,0
2023-01-10T02:04:32.586Z,0
2023-01-10T02:05:36.164Z,0
2023-01-10T02:06:39.175Z,0
2023-01-10T02:07:42.539Z,0
2023-01-10T02:09:49.251Z,0
2023-01-10T02:10:52.364Z,0
2023-01-10T02:12:59.596Z,0
2023-01-10T02:15:06.484Z,0
2023-01-10T02:17:13.236Z,0
2023-01-10T02:18:16.576Z,0
2023-01-10T02:20:23.063Z,0
2023-01-10T02:21:25.601Z,0
2023-01-10T02:22:28.961Z,0
2023-01-10T02:23:31.580Z,0
2023-01-10T02:24:34.678Z,0
2023-01-10T02:25:37.665Z,0
2023-01-10T02:26:41.091Z,0
2023-01-10T02:27:44.258Z,0
2023-01-10T02:28:48.039Z,0
2023-01-10T02:29:52.038Z,0
2023-01-10T02:31:57.778Z,0
2023-01-10T02:33:07.587Z,0
2023-01-10T02:34:10.868Z,0
2023-01-10T02:35:13.863Z,0
2023-01-10T02:36:16.030Z,0
2023-01-10T02:37:19.510Z,0
2023-01-10T02:38:21.965Z,0
2023-01-10T02:40:28.137Z,0
2023-01-10T02:41:31.434Z,0
2023-01-10T02:43:38.568Z,0
2023-01-10T02:44:42.315Z,0
2023-01-10T02:45:45.706Z,0
2023-01-10T02:46:49.275Z,0
2023-01-10T02:48:56.428Z,0
2023-01-10T02:50:00.185Z,0
2023-01-10T02:52:06.159Z,0
2023-01-10T02:53:08.876Z,0
2023-01-10T02:55:14.942Z,0
2023-01-10T02:57:21.281Z,0
2023-01-10T02:58:24.387Z,0
2023-01-10T03:00:31.702Z,0
2023-01-10T03:01:35.728Z,0
2023-01-10T03:03:41.900Z,0
2023-01-10T03:04:45.027Z,0
2023-01-10T03:06:52.134Z,0
2023-01-10T03:07:55.742Z,0
2023-01-10T03:08:58.738Z,0
2023-01-10T03:10:02.132Z,0
2023-01-10T03:12:07.356Z,0
2023-01-10T03:13:10.068Z,0
2023-01-10T03:15:16.995Z,0
2023-01-10T03:17:24.500Z,0
2023-01-10T03:18:27.630Z,0
2023-01-10T03:20:34.096Z,0
2023-01-10T03:22:40.870Z,0
2023-01-10T03:23:43.621Z,0
2023-01-10T03:24:46.678Z,0
2023-01-10T03:25:49.198Z,0
2023-01-10T03:26:51.918Z,0
2023-01-10T03:28:58.993Z,0
2023-01-10T03:31:05.691Z,0
2023-01-10T03:32:09.529Z,0
2023-01-10T03:34:15.741Z,0
2023-01-10T03:36:22.215Z,0
2023-01-10T03:37:25.542Z,0
2023-01-10T03:39:30.848Z,0
2023-01-10T03:41:36.433Z,0
2023-01-10T03:42:39.168Z,0
2023-01-10T03:44:45.617Z,0
2023-01-10T03:46:53.442Z,0
2023-01-10T03:47:57.481Z,0
2023-01-10T03:49:00.943Z,0
2023-01-10T03:50:03.958Z,0
2023-01-10T03:52:10.789Z,0
2023-01-10T03:53:13.849Z,0
2023-01-10T03:54:16.933Z,0
2023-01-10T03:55:19.693Z,0
2023-01-10T03:57:26.780Z,0
2023-01-10T03:58:30.179Z,0
2023-01-10T03:59:33.347Z,0
2023-01-10T04:00:36.715Z,0
2023-01-10T04:02:42.566Z,0
2023-01-10T04:03:46.874Z,0
2023-01-10T04:04:49.607Z,0
2023-01-10T04:05:52.915Z,0
2023-01-10T04:07:59.150Z,0
2023-01-10T04:10:06.033Z,0
2023-01-10T04:11:09.035Z,0
2023-01-10T04:13:14.906Z,0
2023-01-10T04:15:20.398Z,0
2023-01-10T04:17:27.542Z,0
2023-01-10T04:18:30.943Z,0
2023-01-10T04:20:37.854Z,0
2023-01-10T04:22:42.511Z,0
2023-01-10T04:24:49.190Z,0
2023-01-10T04:25:52.292Z,0
2023-01-10T04:27:58.116Z,0
2023-01-10T04:30:04.556Z,0
2023-01-10T04:32:10.687Z,0
2023-01-10T04:33:14.065Z,0
2023-01-10T04:35:20.307Z,0
2023-01-10T04:37:26.716Z,0
2023-01-10T04:39:33.182Z,0
2023-01-10T04:40:36.219Z,0
2023-01-10T04:42:41.837Z,0
2023-01-10T04:44:47.796Z,0
2023-01-10T04:45:51.026Z,0
2023-01-10T04:46:54.143Z,0
2023-01-10T04:47:57.254Z,0
2023-01-10T04:50:03.904Z,0
2023-01-10T04:52:10.700Z,0
2023-01-10T04:53:13.726Z,0
2023-01-10T04:55:19.914Z,0
2023-01-10T04:57:26.702Z,0
2023-01-10T04:58:30.304Z,0
2023-01-10T04:59:33.352Z,0
2023-01-10T05:00:36.361Z,0
2023-01-10T05:02:44.149Z,0
2023-01-10T05:03:47.441Z,0
2023-01-10T05:04:50.828Z,0
2023-01-10T05:05:53.959Z,0
2023-01-10T05:08:01.365Z,0
2023-01-10T05:09:04.473Z,0
2023-01-10T05:10:08.206Z,0
2023-01-10T05:11:11.979Z,0
2023-01-10T05:13:18.790Z,0
2023-01-10T05:15:24.614Z,0
2023-01-10T05:16:27.863Z,0
2023-01-10T05:18:33.414Z,0
2023-01-10T05:20:39.744Z,0
2023-01-10T05:22:46.605Z,0
2023-01-10T05:23:49.889Z,0
2023-01-10T05:25:58.887Z,0
2023-01-10T05:28:03.961Z,0
2023-01-10T05:30:10.396Z,0
2023-01-10T05:31:13.422Z,0
2023-01-10T05:33:19.571Z,0
2023-01-10T05:35:26.656Z,0
2023-01-10T05:37:32.438Z,0
2023-01-10T05:38:36.570Z,0
2023-01-10T05:40:42.690Z,0
2023-01-10T05:42:49.127Z,0
2023-01-10T05:44:55.356Z,0
2023-01-10T05:45:59.309Z,0
2023-01-10T05:48:04.996Z,0
2023-01-10T05:50:11.537Z,0
2023-01-10T05:52:17.377Z,0
2023-01-10T05:53:20.253Z,0
2023-01-10T05:55:26.272Z,0
2023-01-10T05:57:32.423Z,0
2023-01-10T05:59:38.589Z,0
2023-01-10T06:00:42.001Z,0
2023-01-10T06:02:47.785Z,0
2023-01-10T06:04:54.303Z,0
2023-01-10T06:07:00.895Z,0
2023-01-10T06:08:03.643Z,0
2023-01-10T06:10:10.779Z,0
2023-01-10T06:12:17.295Z,0
2023-01-10T06:14:24.040Z,0
2023-01-10T06:15:27.676Z,0
2023-01-10T06:17:33.603Z,0
2023-01-10T06:19:40.052Z,0
2023-01-10T06:21:46.245Z,0
2023-01-10T06:22:49.041Z,0
2023-01-10T06:24:54.641Z,0
2023-01-10T06:27:01.861Z,0
2023-01-10T06:29:07.876Z,0
2023-01-10T06:30:11.239Z,0
2023-01-10T06:32:18.132Z,0
2023-01-10T06:34:24.943Z,0
2023-01-10T06:36:30.516Z,0
2023-01-10T06:37:33.543Z,0
2023-01-10T06:38:36.712Z,0
2023-01-10T06:39:38.989Z,0
2023-01-10T06:41:46.251Z,0
2023-01-10T06:42:49.297Z,0
2023-01-10T06:43:52.368Z,0
2023-01-10T06:44:56.102Z,0
2023-01-10T06:47:03.338Z,0
2023-01-10T06:48:06.629Z,0
2023-01-10T06:49:09.786Z,0
2023-01-10T06:50:12.862Z,0
2023-01-10T06:52:18.827Z,0
2023-01-10T06:54:23.942Z,0
2023-01-10T06:55:26.982Z,0
2023-01-10T06:57:33.823Z,0
2023-01-10T06:59:39.925Z,0
2023-01-10T07:01:47.056Z,0
2023-01-10T07:02:50.370Z,0
2023-01-10T07:04:57.149Z,0
2023-01-10T07:07:03.235Z,0
2023-01-10T07:09:10.281Z,0
2023-01-10T07:10:13.337Z,0
2023-01-10T07:12:20.070Z,0
2023-01-10T07:14:27.555Z,0
2023-01-10T07:16:34.017Z,0
2023-01-10T07:17:37.382Z,0
2023-01-10T07:19:43.687Z,1
2023-01-10T07:21:49.810Z,1
2023-01-10T07:22:53.531Z,1
2023-01-10T07:23:56.916Z,2
2023-01-10T07:25:00.575Z,2
2023-01-10T07:27:06.486Z,2
2023-01-10T07:28:09.904Z,2
2023-01-10T07:29:13.978Z,3
2023-01-10T07:30:17.657Z,3
2023-01-10T07:32:24.530Z,3
2023-01-10T07:33:27.592Z,3
2023-01-10T07:34:30.594Z,4
2023-01-10T07:35:33.866Z,4
2023-01-10T07:37:44.115Z,4
2023-01-10T07:39:50.700Z,4
2023-01-10T07:40:54.322Z,4
2023-01-10T07:43:00.539Z,4
2023-01-10T07:45:07.414Z,5
2023-01-10T07:47:14.445Z,5
2023-01-10T07:48:16.979Z,4
2023-01-10T07:50:22.471Z,5
2023-01-10T07:52:29.893Z,4
2023-01-10T07:54:36.250Z,6
2023-01-10T07:55:39.413Z,5
2023-01-10T07:57:45.592Z,5
2023-01-10T07:59:52.270Z,7
2023-01-10T08:00:56.611Z,8
2023-01-10T08:01:59.730Z,8
2023-01-10T08:03:04.087Z,10
2023-01-10T08:05:10.816Z,14
2023-01-10T08:07:20.916Z,20
2023-01-10T08:08:24.274Z,17
2023-01-10T08:10:31.081Z,20
2023-01-10T08:12:36.935Z,13
2023-01-10T08:14:44.066Z,12
2023-01-10T08:15:47.453Z,14
2023-01-10T08:17:55.035Z,12
2023-01-10T08:20:01.316Z,14
2023-01-10T08:22:08.088Z,20
2023-01-10T08:23:11.059Z,23
2023-01-10T08:25:16.947Z,23
2023-01-10T08:27:23.093Z,27
2023-01-10T08:29:29.757Z,19
2023-01-10T08:30:33.446Z,18
2023-01-10T08:32:40.934Z,17
2023-01-10T08:34:47.960Z,19
2023-01-10T08:36:54.545Z,26
2023-01-10T08:37:58.180Z,25
2023-01-10T08:40:04.349Z,29
2023-01-10T08:42:10.608Z,32
2023-01-10T08:44:16.467Z,35
2023-01-10T08:45:20.181Z,31
2023-01-10T08:47:28.342Z,22
2023-01-10T08:49:35.281Z,28
2023-01-10T08:51:42.177Z,31
2023-01-10T08:52:45.873Z,27
2023-01-10T08:54:51.807Z,52
2023-01-10T08:56:58.150Z,50
2023-01-10T08:59:05.863Z,55
2023-01-10T09:00:09.242Z,79
2023-01-10T09:02:16.435Z,66
2023-01-10T09:04:23.597Z,85
2023-01-10T09:06:33.848Z,73
2023-01-10T09:07:36.942Z,140
2023-01-10T09:09:44.274Z,113
2023-01-10T09:11:50.413Z,119
2023-01-10T09:13:57.764Z,124
2023-01-10T09:15:00.893Z,125
2023-01-10T09:17:07.603Z,149
2023-01-10T09:19:13.639Z,176
2023-01-10T09:21:21.455Z,66
2023-01-10T09:22:24.958Z,103
2023-01-10T09:24:31.513Z,117
2023-01-10T09:26:38.709Z,134
2023-01-10T09:28:44.435Z,86
2023-01-10T09:29:47.321Z,128
2023-01-10T09:31:53.312Z,77
2023-01-10T09:33:59.571Z,112
2023-01-10T09:36:07.651Z,115
2023-01-10T09:37:11.587Z,126
2023-01-10T09:39:18.150Z,134
2023-01-10T09:41:25.574Z,557
2023-01-10T09:42:29.047Z,128
2023-01-10T09:44:36.081Z,451
2023-01-10T09:46:42.440Z,183
2023-01-10T09:47:45.793Z,403
2023-01-10T09:49:52.502Z,169
2023-01-10T09:50:55.908Z,128
2023-01-10T09:52:01.562Z,129
2023-01-10T09:53:04.924Z,102
2023-01-10T09:54:14.832Z,90
2023-01-10T09:55:18.535Z,88
2023-01-10T09:57:25.213Z,83
2023-01-10T09:58:28.571Z,82
2023-01-10T10:00:35.072Z,90
2023-01-10T10:02:41.909Z,93
2023-01-10T10:03:45.759Z,86
2023-01-10T10:06:13.567Z,119
2023-01-10T10:08:19.407Z,136
2023-01-10T10:10:26.139Z,154
2023-01-10T10:11:29.248Z,129
2023-01-10T10:13:35.407Z,157
2023-01-10T10:14:39.063Z,148
2023-01-10T10:16:45.139Z,112
2023-01-10T10:17:48.482Z,135
2023-01-10T10:18:51.555Z,164
2023-01-10T10:19:54.183Z,76
2023-01-10T10:20:56.933Z,96
2023-01-10T10:22:00.406Z,129
2023-01-10T10:23:04.200Z,98
2023-01-10T10:25:10.751Z,87
2023-01-10T10:26:14.151Z,107
2023-01-10T10:28:20.939Z,109
2023-01-10T10:30:27.754Z,104
2023-01-10T10:31:31.157Z,85
2023-01-10T10:33:37.252Z,92
2023-01-10T10:34:40.539Z,141
2023-01-10T10:35:43.581Z,125
2023-01-10T10:36:47.665Z,105
2023-01-10T10:38:54.889Z,83
2023-01-10T10:39:57.604Z,201
2023-01-10T10:42:04.810Z,85
2023-01-10T10:44:14.098Z,78
2023-01-10T10:45:17.084Z,63
2023-01-10T10:47:23.209Z,81
2023-01-10T10:49:30.089Z,57
2023-01-10T10:50:33.372Z,54
2023-01-10T10:52:39.945Z,48
2023-01-10T10:54:49.941Z,38
2023-01-10T10:56:56.723Z,51
2023-01-10T10:58:03.093Z,57
2023-01-10T11:00:09.561Z,64
2023-01-10T11:02:16.977Z,76
2023-01-10T11:03:20.276Z,97
2023-01-10T11:04:23.793Z,120
2023-01-10T11:05:27.081Z,180
2023-01-10T11:07:33.054Z,157
2023-01-10T11:08:35.560Z,129
2023-01-10T11:09:40.352Z,125
2023-01-10T11:10:44.374Z,124
2023-01-10T11:12:50.706Z,93
2023-01-10T11:13:54.044Z,86
2023-01-10T11:16:01.223Z,68
2023-01-10T11:18:07.738Z,46
2023-01-10T11:19:10.461Z,44
2023-01-10T11:21:16.786Z,44
2023-01-10T11:23:23.288Z,39
2023-01-10T11:24:26.353Z,36
2023-01-10T11:25:29.783Z,35
2023-01-10T11:26:33.551Z,38
2023-01-10T11:27:36.607Z,38
2023-01-10T11:29:42.981Z,39
2023-01-10T11:31:50.322Z,38
2023-01-10T11:32:53.815Z,36
2023-01-10T11:33:57.171Z,41
2023-01-10T11:36:54.448Z,46
2023-01-10T11:37:57.784Z,41
2023-01-10T11:40:04.651Z,48
2023-01-10T11:42:11.845Z,43
2023-01-10T11:43:14.627Z,50
2023-01-10T11:45:21.527Z,57
2023-01-10T11:47:46.815Z,55
2023-01-10T11:49:20.182Z,64
2023-01-10T11:50:23.320Z,56
2023-01-10T11:51:26.771Z,58
2023-01-10T11:53:33.150Z,51
2023-01-10T11:55:40.449Z,65
2023-01-10T11:57:48.614Z,57
2023-01-10T11:58:51.610Z,58
2023-01-10T12:01:01.373Z,70
2023-01-10T12:02:05.245Z,49
2023-01-10T12:03:08.388Z,43
2023-01-10T12:04:11.740Z,56
2023-01-10T12:06:17.563Z,59
2023-01-10T12:07:20.446Z,56
2023-01-10T12:08:24.161Z,47
2023-01-10T12:09:27.061Z,40
2023-01-10T12:11:33.838Z,32
2023-01-10T12:12:37.535Z,28
2023-01-10T12:14:44.986Z,24
2023-01-10T12:16:51.948Z,18
2023-01-10T12:17:55.118Z,23
2023-01-10T12:18:58.137Z,21
2023-01-10T12:20:01.705Z,19
2023-01-10T12:22:07.967Z,28
2023-01-10T12:23:11.645Z,29
2023-01-10T12:25:17.841Z,27
2023-01-10T12:27:24.919Z,25
2023-01-10T12:28:27.699Z,28
2023-01-10T12:29:31.523Z,25
2023-01-10T12:30:35.829Z,24
2023-01-10T12:32:41.979Z,20
2023-01-10T12:33:45.655Z,18
2023-01-10T12:34:49.316Z,18
2023-01-10T12:35:52.423Z,20
2023-01-10T12:37:58.987Z,20
2023-01-10T12:39:01.795Z,18
2023-01-10T12:41:08.230Z,22
2023-01-10T12:43:14.308Z,22
2023-01-10T12:44:17.738Z,26
2023-01-10T12:47:14.832Z,29
2023-01-10T12:48:18.617Z,26
2023-01-10T12:49:22.346Z,25
2023-01-10T12:51:29.276Z,23
2023-01-10T12:52:33.231Z,22
2023-01-10T12:54:39.106Z,23
2023-01-10T12:56:46.795Z,19
2023-01-10T12:58:57.719Z,20
2023-01-10T13:00:01.159Z,19
2023-01-10T13:02:10.322Z,19
2023-01-10T13:03:13.738Z,19
2023-01-10T13:05:21.340Z,21
2023-01-10T13:07:29.269Z,20
2023-01-10T13:09:36.230Z,19
2023-01-10T13:10:39.581Z,19
2023-01-10T13:12:45.215Z,17
2023-01-10T13:13:54.060Z,17
2023-01-10T13:14:57.794Z,17
2023-01-10T13:16:01.290Z,15
2023-01-10T13:18:07.929Z,15
2023-01-10T13:20:14.827Z,14
2023-01-10T13:21:18.149Z,14
2023-01-10T13:23:25.347Z,13
2023-01-10T13:25:32.509Z,19
2023-01-10T13:26:36.392Z,18
2023-01-10T13:28:42.569Z,28
2023-01-10T13:30:50.015Z,22
2023-01-10T13:31:53.120Z,23
2023-01-10T13:32:56.955Z,23
2023-01-10T13:34:00.472Z,21
2023-01-10T13:36:07.439Z,18
2023-01-10T13:37:10.618Z,19
2023-01-10T13:39:17.104Z,22
2023-01-10T13:41:24.257Z,23
2023-01-10T13:42:27.839Z,24
2023-01-10T13:43:30.631Z,23
2023-01-10T13:44:34.317Z,19
2023-01-10T13:46:41.730Z,13
2023-01-10T13:47:45.525Z,12
2023-01-10T13:49:52.805Z,12
2023-01-10T13:51:59.887Z,14
2023-01-10T13:53:03.069Z,13
2023-01-10T13:55:10.280Z,11
2023-01-10T13:57:15.801Z,14
2023-01-10T13:59:23.009Z,13
2023-01-10T14:00:27.073Z,15
2023-01-10T14:02:35.966Z,14
2023-01-10T14:03:40.519Z,12
2023-01-10T14:04:45.179Z,14
2023-01-10T14:05:48.490Z,14
2023-01-10T14:07:54.958Z,18
2023-01-10T14:08:58.400Z,19
2023-01-10T14:10:06.277Z,20
2023-01-10T14:11:09.984Z,17
2023-01-10T14:13:18.051Z,11
2023-01-10T14:14:21.443Z,9
2023-01-10T14:16:28.440Z,9
2023-01-10T14:18:34.996Z,8
2023-01-10T14:19:38.841Z,8
2023-01-10T14:21:48.147Z,6
2023-01-10T14:23:55.268Z,6
2023-01-10T14:24:58.999Z,7
2023-01-10T14:27:07.177Z,8
2023-01-10T14:29:15.027Z,10
2023-01-10T14:30:19.806Z,10
2023-01-10T14:32:28.574Z,10
2023-01-10T14:34:36.953Z,9
2023-01-10T14:35:41.226Z,7
2023-01-10T14:37:48.519Z,8
2023-01-10T14:39:55.346Z,8
2023-01-10T14:42:02.658Z,7
2023-01-10T14:43:06.072Z,7
2023-01-10T14:45:16.947Z,6
2023-01-10T14:47:22.960Z,6
2023-01-10T14:48:26.681Z,6
2023-01-10T14:50:33.781Z,4
2023-01-10T14:52:41.075Z,4
2023-01-10T14:53:44.781Z,4
2023-01-10T14:55:51.619Z,3
2023-01-10T14:57:58.949Z,2
2023-01-10T14:59:02.320Z,3
2023-01-10T15:01:09.645Z,2
2023-01-10T15:03:15.769Z,2
2023-01-10T15:04:19.227Z,2
2023-01-10T15:06:28.338Z,2
2023-01-10T15:08:35.773Z,1
2023-01-10T15:10:42.423Z,1
2023-01-10T15:11:45.744Z,1
2023-01-10T15:13:52.042Z,1
2023-01-10T15:15:59.856Z,1
2023-01-10T15:18:06.268Z,0
2023-01-10T15:19:09.646Z,0
2023-01-10T15:21:14.893Z,0
2023-01-10T15:23:21.470Z,0
2023-01-10T15:24:25.514Z,0
2023-01-10T15:26:32.503Z,0
2023-01-10T15:28:39.265Z,0
2023-01-10T15:30:48.490Z,0
2023-01-10T15:31:51.929Z,0
2023-01-10T15:33:58.328Z,0
2023-01-10T15:36:04.307Z,0
2023-01-10T15:38:11.158Z,0
2023-01-10T15:39:14.782Z,0
2023-01-10T15:41:22.077Z,0
2023-01-10T15:43:29.517Z,0
2023-01-10T15:44:32.961Z,0
2023-01-10T15:45:36.001Z,0
2023-01-10T15:46:39.880Z,0
2023-01-10T15:48:47.467Z,0
2023-01-10T15:49:51.213Z,0
2023-01-10T15:51:57.451Z,0
2023-01-10T15:54:05.493Z,0
2023-01-10T15:56:13.214Z,0
2023-01-10T15:57:16.928Z,0
2023-01-10T15:59:23.720Z,0
2023-01-10T16:01:32.280Z,0
2023-01-10T16:03:42.231Z,0
2023-01-10T16:04:45.987Z,0
2023-01-10T16:06:52.063Z,0
2023-01-10T16:08:58.976Z,0
2023-01-10T16:10:02.123Z,0
2023-01-10T16:12:09.677Z,0
2023-01-10T16:14:15.729Z,0
2023-01-10T16:15:18.174Z,0
2023-01-10T16:17:26.043Z,0
2023-01-10T16:19:32.105Z,0
2023-01-10T16:21:38.726Z,0
2023-01-10T16:22:42.108Z,0
2023-01-10T16:24:49.559Z,0
2023-01-10T16:26:56.177Z,0
2023-01-10T16:27:59.685Z,0
2023-01-10T16:29:03.035Z,0
2023-01-10T16:30:06.330Z,0
2023-01-10T16:32:12.511Z,0
2023-01-10T16:33:16.142Z,0
2023-01-10T16:34:19.478Z,0
2023-01-10T16:35:22.559Z,0
2023-01-10T16:37:28.700Z,0
2023-01-10T16:38:32.101Z,0
2023-01-10T16:40:39.032Z,0
2023-01-10T16:42:45.462Z,0
2023-01-10T16:44:52.634Z,0
2023-01-10T16:45:56.848Z,0
2023-01-10T16:48:03.126Z,0
2023-01-10T16:50:09.840Z,0
2023-01-10T16:51:12.903Z,0
2023-01-10T16:52:15.722Z,0
2023-01-10T16:53:19.102Z,0
2023-01-10T16:55:25.822Z,0
2023-01-10T16:56:29.565Z,0
2023-01-10T16:57:32.991Z,0
2023-01-10T16:58:35.951Z,0
2023-01-10T17:00:43.487Z,0
2023-01-10T17:01:47.738Z,0
2023-01-10T17:02:51.153Z,0
2023-01-10T17:03:55.041Z,0
2023-01-10T17:06:00.830Z,0
2023-01-10T17:07:03.345Z,0
2023-01-10T17:08:06.795Z,0
2023-01-10T17:09:09.308Z,0
2023-01-10T17:11:15.282Z,0
2023-01-10T17:12:18.010Z,0
2023-01-10T17:13:21.093Z,0
2023-01-10T17:14:24.887Z,0
2023-01-10T17:16:32.673Z,0
2023-01-10T17:17:35.117Z,0
2023-01-10T17:18:41.537Z,0
2023-01-10T17:19:45.204Z,0
2023-01-10T17:21:52.119Z,0
2023-01-10T17:23:59.187Z,0
2023-01-10T17:25:01.649Z,0
2023-01-10T17:27:08.519Z,0
2023-01-10T17:29:14.687Z,0
2023-01-10T17:31:22.681Z,0
2023-01-10T17:32:26.668Z,0
2023-01-10T17:34:33.466Z,0
2023-01-10T17:36:39.124Z,0
2023-01-10T17:38:46.019Z,0
2023-01-10T17:39:49.137Z,0
2023-01-10T17:41:55.634Z,0
2023-01-10T17:44:01.924Z,0
2023-01-10T17:46:09.403Z,0
2023-01-10T17:47:13.469Z,0
2023-01-10T17:49:20.375Z,0
2023-01-10T17:51:26.376Z,0
2023-01-10T17:53:33.853Z,0
2023-01-10T17:54:37.136Z,0
2023-01-10T17:56:43.871Z,0
2023-01-10T17:58:49.782Z,0
2023-01-10T18:00:57.652Z,0
2023-01-10T18:02:03.241Z,0
2023-01-10T18:03:07.913Z,0
2023-01-10T18:04:11.015Z,0
2023-01-10T18:06:26.997Z,0
2023-01-10T18:08:33.978Z,0
2023-01-10T18:09:36.957Z,0
2023-01-10T18:11:43.065Z,0
2023-01-10T18:13:49.079Z,0
2023-01-10T18:15:54.771Z,0
2023-01-10T18:16:58.049Z,0
2023-01-10T18:19:05.455Z,0
2023-01-10T18:21:12.282Z,0
2023-01-10T18:23:18.998Z,0
2023-01-10T18:24:22.336Z,0
2023-01-10T18:26:29.132Z,0
2023-01-10T18:28:44.428Z,0
2023-01-10T18:30:51.230Z,0
2023-01-10T18:32:56.060Z,0
2023-01-10T18:33:59.474Z,0
2023-01-10T18:36:07.226Z,0
2023-01-10T18:38:14.321Z,0
2023-01-10T18:40:21.109Z,0
2023-01-10T18:41:24.412Z,0
2023-01-10T18:43:30.898Z,0
2023-01-10T18:45:36.965Z,0
2023-01-10T18:47:42.524Z,0
2023-01-10T18:48:45.961Z,0
2023-01-10T18:50:53.215Z,0
2023-01-10T18:52:59.880Z,0
2023-01-10T18:55:06.492Z,0
2023-01-10T18:56:09.591Z,0
2023-01-10T18:58:16.185Z,0
2023-01-10T19:00:22.663Z,0
2023-01-10T19:02:29.053Z,0
2023-01-10T19:03:32.180Z,0
2023-01-10T19:05:38.033Z,0
2023-01-10T19:07:44.941Z,0
2023-01-10T19:09:52.052Z,0
2023-01-10T19:11:18.487Z,0
2023-01-10T19:12:22.208Z,0
2023-01-10T19:13:24.385Z,0
2023-01-10T19:15:30.662Z,0
2023-01-10T19:17:36.709Z,0
2023-01-10T19:18:40.475Z,0
2023-01-10T19:19:43.501Z,0
2023-01-10T19:20:46.619Z,0
2023-01-10T19:22:53.429Z,0
2023-01-10T19:23:57.296Z,0
2023-01-10T19:26:04.315Z,0
2023-01-10T19:28:10.319Z,0
2023-01-10T19:30:16.743Z,0
2023-01-10T19:31:19.989Z,0
2023-01-10T19:33:26.835Z,0
2023-01-10T19:35:33.069Z,0
2023-01-10T19:37:39.973Z,0
2023-01-10T19:38:43.420Z,0
2023-01-10T19:40:50.411Z,0
2023-01-10T19:42:56.879Z,0
2023-01-10T19:45:03.150Z,0
2023-01-10T19:46:06.494Z,0
2023-01-10T19:48:12.511Z,0
2023-01-10T19:50:18.696Z,0
2023-01-10T19:51:21.555Z,0
2023-01-10T19:52:24.695Z,0
2023-01-10T19:53:28.735Z,0
2023-01-10T19:55:34.354Z,0
2023-01-10T19:57:40.615Z,0
2023-01-10T19:58:43.637Z,0
2023-01-10T20:00:49.211Z,0
2023-01-10T20:02:55.949Z,0
2023-01-10T20:03:58.985Z,0
2023-01-10T20:05:02.040Z,0
2023-01-10T20:06:04.480Z,0
2023-01-10T20:08:11.269Z,0
2023-01-10T20:09:14.782Z,0
2023-01-10T20:10:17.976Z,0
2023-01-10T20:11:21.445Z,0
2023-01-10T20:13:27.319Z,0
2023-01-10T20:15:32.690Z,0
2023-01-10T20:16:35.724Z,0
2023-01-10T20:18:41.356Z,0
2023-01-10T20:20:47.464Z,0
2023-01-10T20:22:53.659Z,0
2023-01-10T20:23:56.716Z,0
2023-01-10T20:26:02.933Z,0
2023-01-10T20:28:09.697Z,0
2023-01-10T20:29:12.503Z,0
2023-01-10T20:30:15.644Z,0
2023-01-10T20:31:18.855Z,0
2023-01-10T20:33:24.753Z,0
2023-01-10T20:34:28.100Z,0
2023-01-10T20:35:31.548Z,0
2023-01-10T20:36:35.236Z,0
2023-01-10T20:38:40.818Z,0
2023-01-10T20:40:48.165Z,0
2023-01-10T20:41:50.896Z,0
2023-01-10T20:43:57.369Z,0
2023-01-10T20:46:03.527Z,0
2023-01-10T20:48:09.799Z,0
2023-01-10T20:49:12.895Z,0
2023-01-10T20:51:19.282Z,0
2023-01-10T20:53:24.876Z,0
2023-01-10T20:55:31.686Z,0
2023-01-10T20:56:35.479Z,0
2023-01-10T20:58:41.788Z,0
2023-01-10T21:00:47.317Z,0
2023-01-10T21:02:55.107Z,0
2023-01-10T21:03:58.071Z,0
2023-01-10T21:06:05.230Z,0
2023-01-10T21:08:12.527Z,0
2023-01-10T21:10:18.394Z,0
2023-01-10T21:11:22.200Z,0
2023-01-10T21:13:32.313Z,0
2023-01-10T21:15:37.816Z,0
2023-01-10T21:17:44.127Z,0
2023-01-10T21:18:46.661Z,0
2023-01-10T21:20:53.231Z,0
2023-01-10T21:23:02.917Z,0
2023-01-10T21:25:09.141Z,0
2023-01-10T21:26:12.158Z,0
2023-01-10T21:28:19.321Z,0
2023-01-10T21:30:25.924Z,0
2023-01-10T21:32:32.160Z,0
2023-01-10T21:33:35.569Z,0
2023-01-10T21:35:41.196Z,0
2023-01-10T21:37:47.085Z,0
2023-01-10T21:39:53.041Z,0
2023-01-10T21:40:56.382Z,0
2023-01-10T21:43:03.241Z,0
2023-01-10T21:45:10.580Z,0
2023-01-10T21:47:17.336Z,0
2023-01-10T21:48:20.407Z,0
2023-01-10T21:50:27.150Z,0
2023-01-10T21:52:34.152Z,0
2023-01-10T21:54:40.008Z,0
2023-01-10T21:55:42.464Z,0
2023-01-10T21:57:48.572Z,0
2023-01-10T21:59:56.725Z,0
2023-01-10T22:02:02.883Z,0
2023-01-10T22:03:06.054Z,0
2023-01-10T22:05:12.915Z,0
2023-01-10T22:07:19.530Z,0
2023-01-10T22:09:26.442Z,0
2023-01-10T22:10:28.959Z,0
2023-01-10T22:12:34.141Z,0
2023-01-10T22:14:40.199Z,0
2023-01-10T22:16:46.273Z,0
2023-01-10T22:17:49.400Z,0
2023-01-10T22:19:55.656Z,0
2023-01-10T22:22:02.265Z,0
2023-01-10T22:24:09.097Z,0
2023-01-10T22:25:12.217Z,0
2023-01-10T22:27:17.503Z,0
2023-01-10T22:29:23.671Z,0
2023-01-10T22:31:31.982Z,0
2023-01-10T22:32:35.401Z,0
2023-01-10T22:34:41.063Z,0
2023-01-10T22:36:46.895Z,0
2023-01-10T22:38:53.170Z,0
2023-01-10T22:39:56.902Z,0
2023-01-10T22:42:03.445Z,0
2023-01-10T22:44:09.925Z,0
2023-01-10T22:46:17.613Z,0
2023-01-10T22:47:21.644Z,0
2023-01-10T22:48:27.500Z,0
2023-01-10T22:49:30.856Z,0
2023-01-10T22:51:37.597Z,0
2023-01-10T22:52:40.741Z,0
2023-01-10T22:53:43.860Z,0
2023-01-10T22:54:46.283Z,0
2023-01-10T22:56:52.376Z,0
2023-01-10T22:57:55.770Z,0
2023-01-10T22:58:59.176Z,0
2023-01-10T23:00:02.029Z,0
2023-01-10T23:02:09.938Z,0
2023-01-10T23:03:14.227Z,0
2023-01-10T23:04:18.681Z,0
2023-01-10T23:05:22.538Z,0
2023-01-10T23:07:30.522Z,0
2023-01-10T23:09:36.322Z,0
2023-01-10T23:10:39.686Z,0
2023-01-10T23:12:44.992Z,0
2023-01-10T23:14:51.638Z,0
2023-01-10T23:15:54.818Z,0
2023-01-10T23:18:01.398Z,0
2023-01-10T23:20:08.114Z,0
2023-01-10T23:22:15.165Z,0
2023-01-10T23:23:18.276Z,0
2023-01-10T23:25:23.835Z,0
2023-01-10T23:27:30.571Z,0
2023-01-10T23:28:34.318Z,0
2023-01-10T23:30:40.434Z,0
2023-01-10T23:32:47.409Z,0
2023-01-10T23:34:54.599Z,0
2023-01-10T23:35:58.297Z,0
2023-01-10T23:37:01.160Z,0
2023-01-10T23:38:04.240Z,0
2023-01-10T23:40:10.326Z,0
2023-01-10T23:41:13.209Z,0
2023-01-10T23:42:16.866Z,0
2023-01-10T23:43:20.007Z,0
2023-01-10T23:45:25.916Z,0
2023-01-10T23:46:28.692Z,0
2023-01-10T23:47:31.169Z,0
2023-01-10T23:48:35.497Z,0
2023-01-10T23:50:42.540Z,0
2023-01-10T23:52:48.733Z,0
2023-01-10T23:53:52.018Z,0
2023-01-10T23:55:58.520Z,0